createdAt,value
2018-11-27T00:00:22.454Z,0.36
2018-11-27T00:01:22.442Z,0.33
2018-11-27T00:02:22.433Z,0.32
2018-11-27T00:03:22.440Z,0.32
2018-11-27T00:04:22.438Z,0.32
2018-11-27T00:05:22.412Z,0.26
2018-11-27T00:06:22.394Z,0.26
2018-11-27T00:07:22.385Z,0.26
2018-11-27T00:08:22.384Z,0.29
2018-11-27T00:09:22.363Z,0.18
2018-11-27T00:10:22.358Z,0.18
2018-11-27T00:11:22.333Z,0.28
2018-11-27T00:12:22.323Z,0.21
2018-11-27T00:13:22.333Z,0.23
2018-11-27T00:14:22.311Z,0.21
2018-11-27T00:15:22.324Z,0.21
2018-11-27T00:16:22.290Z,0.24
2018-11-27T00:17:22.268Z,0.23
2018-11-27T00:18:22.254Z,0.23
2018-11-27T00:19:22.248Z,0.23
2018-11-27T00:20:22.237Z,0.24
2018-11-27T00:21:22.244Z,0.23
2018-11-27T00:22:22.235Z,0.24
2018-11-27T00:23:22.205Z,0.21
2018-11-27T00:24:22.207Z,0.31
2018-11-27T00:25:22.186Z,0.21
2018-11-27T00:26:22.181Z,0.23
2018-11-27T00:27:22.161Z,0.20
2018-11-27T00:28:22.152Z,0.23
2018-11-27T00:29:22.201Z,0.17
2018-11-27T00:30:22.129Z,0.13
2018-11-27T00:31:22.111Z,0.14
2018-11-27T00:32:22.101Z,0.14
2018-11-27T00:33:22.091Z,0.10
2018-11-27T00:34:22.097Z,0.18
2018-11-27T00:35:22.071Z,0.00
2018-11-27T00:36:22.059Z,0.08
2018-11-27T00:37:22.049Z,0.07
2018-11-27T00:38:22.037Z,0.03
2018-11-27T00:39:22.053Z,0.04
2018-11-27T00:40:22.014Z,0.08
2018-11-27T00:41:21.999Z,0.04
2018-11-27T00:42:21.995Z,-0.07
2018-11-27T00:43:21.985Z,0.03
2018-11-27T00:44:21.991Z,-0.08
2018-11-27T00:45:21.982Z,-0.05
2018-11-27T00:46:21.950Z,0.00
2018-11-27T00:47:21.943Z,-0.07
2018-11-27T00:48:21.923Z,-0.07
2018-11-27T00:49:21.947Z,-0.04
2018-11-27T00:50:21.914Z,0.00
2018-11-27T00:51:21.897Z,-0.05
2018-11-27T00:52:21.887Z,-0.08
2018-11-27T00:53:21.879Z,-0.03
2018-11-27T00:54:21.881Z,-0.08
2018-11-27T00:55:21.851Z,-0.05
2018-11-27T00:56:21.845Z,-0.15
2018-11-27T00:57:21.824Z,-0.11
2018-11-27T00:58:21.815Z,-0.08
2018-11-27T00:59:21.834Z,-0.15
2018-11-27T01:00:21.828Z,-0.18
2018-11-27T01:01:21.782Z,-0.15
2018-11-27T01:02:21.795Z,-0.14
2018-11-27T01:03:21.762Z,-0.15
2018-11-27T01:04:21.763Z,-0.15
2018-11-27T01:05:21.743Z,-0.16
2018-11-27T01:06:21.757Z,-0.18
2018-11-27T01:07:21.731Z,-0.19
2018-11-27T01:08:21.713Z,-0.21
2018-11-27T01:09:21.716Z,-0.22
2018-11-27T01:10:21.682Z,-0.25
2018-11-27T01:11:21.672Z,-0.26
2018-11-27T01:12:21.658Z,-0.28
2018-11-27T01:13:21.652Z,-0.25
2018-11-27T01:14:21.660Z,-0.29
2018-11-27T01:15:21.637Z,-0.23
2018-11-27T01:16:21.616Z,-0.31
2018-11-27T01:17:21.612Z,-0.31
2018-11-27T01:18:21.595Z,-0.31
2018-11-27T01:19:21.598Z,-0.36
2018-11-27T01:20:21.572Z,-0.34
2018-11-27T01:21:21.561Z,-0.33
2018-11-27T01:22:21.549Z,-0.39
2018-11-27T01:23:21.540Z,-0.37
2018-11-27T01:24:21.547Z,-0.33
2018-11-27T01:25:21.533Z,-0.31
2018-11-27T01:26:21.507Z,-0.36
2018-11-27T01:27:21.493Z,-0.39
2018-11-27T01:28:21.487Z,-0.40
2018-11-27T01:29:21.502Z,-0.33
2018-11-27T01:30:21.459Z,-0.37
2018-11-27T01:31:21.453Z,-0.34
2018-11-27T01:32:21.437Z,-0.40
2018-11-27T01:33:21.424Z,-0.44
2018-11-27T01:34:21.444Z,-0.44
2018-11-27T01:35:21.408Z,-0.51
2018-11-27T01:36:21.406Z,-0.39
2018-11-27T01:37:21.382Z,-0.47
2018-11-27T01:38:21.375Z,-0.52
2018-11-27T01:39:21.382Z,-0.51
2018-11-27T01:40:21.356Z,-0.49
2018-11-27T01:41:21.358Z,-0.47
2018-11-27T01:42:21.334Z,-0.55
2018-11-27T01:43:21.315Z,-0.55
2018-11-27T01:44:21.322Z,-0.49
2018-11-27T01:45:21.292Z,-0.47
2018-11-27T01:46:21.283Z,-0.55
2018-11-27T01:47:21.272Z,-0.49
2018-11-27T01:48:21.257Z,-0.51
2018-11-27T01:49:21.278Z,-0.51
2018-11-27T01:50:21.234Z,-0.49
2018-11-27T01:51:21.226Z,-0.47
2018-11-27T01:52:21.210Z,-0.55
2018-11-27T01:53:21.215Z,-0.47
2018-11-27T01:54:21.225Z,-0.61
2018-11-27T01:55:21.182Z,-0.54
2018-11-27T01:56:21.173Z,-0.54
2018-11-27T01:57:21.157Z,-0.62
2018-11-27T01:58:21.151Z,-0.55
2018-11-27T01:59:21.166Z,-0.62
2018-11-27T02:00:21.131Z,-0.57
2018-11-27T02:01:21.115Z,-0.60
2018-11-27T02:02:21.108Z,-0.69
2018-11-27T02:03:21.104Z,-0.57
2018-11-27T02:04:21.114Z,-0.58
2018-11-27T02:05:21.095Z,-0.61
2018-11-27T02:06:21.060Z,-0.67
2018-11-27T02:07:21.047Z,-0.69
2018-11-27T02:08:21.042Z,-0.64
2018-11-27T02:09:21.049Z,-0.64
2018-11-27T02:10:21.038Z,-0.65
2018-11-27T02:11:21.002Z,-0.58
2018-11-27T02:12:20.994Z,-0.69
2018-11-27T02:13:20.982Z,-0.70
2018-11-27T02:14:20.975Z,-0.58
2018-11-27T02:15:21.002Z,-0.69
2018-11-27T02:16:20.957Z,-0.72
2018-11-27T02:17:20.945Z,-0.72
2018-11-27T02:18:20.933Z,-0.64
2018-11-27T02:19:20.917Z,-0.70
2018-11-27T02:20:20.931Z,-0.75
2018-11-27T02:21:21.821Z,-0.69
2018-11-27T02:22:20.888Z,-0.78
2018-11-27T02:23:20.875Z,-0.72
2018-11-27T02:24:20.863Z,-0.73
2018-11-27T02:25:20.874Z,-0.83
2018-11-27T02:26:20.838Z,-0.80
2018-11-27T02:27:20.829Z,-0.80
2018-11-27T02:28:20.830Z,-0.80
2018-11-27T02:29:20.806Z,-0.83
2018-11-27T02:30:20.819Z,-0.82
2018-11-27T02:31:20.789Z,-0.79
2018-11-27T02:32:20.791Z,-0.85
2018-11-27T02:33:20.774Z,-0.82
2018-11-27T02:34:20.747Z,-0.89
2018-11-27T02:35:20.762Z,-0.80
2018-11-27T02:36:20.733Z,-0.83
2018-11-27T02:37:20.716Z,-0.80
2018-11-27T02:38:20.705Z,-0.86
2018-11-27T02:39:20.701Z,-0.85
2018-11-27T02:40:20.710Z,-0.91
2018-11-27T02:41:20.672Z,-0.86
2018-11-27T02:42:20.659Z,-0.82
2018-11-27T02:43:20.668Z,-0.83
2018-11-27T02:44:20.640Z,-0.83
2018-11-27T02:45:20.652Z,-0.86
2018-11-27T02:46:20.621Z,-0.82
2018-11-27T02:47:20.610Z,-0.83
2018-11-27T02:48:20.603Z,-0.85
2018-11-27T02:49:20.583Z,-0.94
2018-11-27T02:50:20.586Z,-0.82
2018-11-27T02:51:20.562Z,-0.85
2018-11-27T02:52:20.550Z,-0.82
2018-11-27T02:53:20.542Z,-0.89
2018-11-27T02:54:20.525Z,-0.89
2018-11-27T02:55:20.547Z,-0.89
2018-11-27T02:56:20.513Z,-0.89
2018-11-27T02:57:20.499Z,-0.82
2018-11-27T02:58:20.484Z,-0.86
2018-11-27T02:59:20.478Z,-0.85
2018-11-27T03:00:20.483Z,-0.89
2018-11-27T03:01:20.452Z,-0.94
2018-11-27T03:02:20.445Z,-0.89
2018-11-27T03:03:20.432Z,-0.91
2018-11-27T03:04:20.426Z,-0.89
2018-11-27T03:05:20.430Z,-0.85
2018-11-27T03:06:20.391Z,-0.85
2018-11-27T03:07:20.385Z,-0.85
2018-11-27T03:08:20.379Z,-1.01
2018-11-27T03:09:20.361Z,-0.89
2018-11-27T03:10:20.374Z,-0.92
2018-11-27T03:11:20.343Z,-0.95
2018-11-27T03:12:20.325Z,-0.95
2018-11-27T03:13:20.324Z,-0.86
2018-11-27T03:14:20.305Z,-0.94
2018-11-27T03:15:20.311Z,-0.94
2018-11-27T03:16:20.282Z,-0.98
2018-11-27T03:17:20.271Z,-0.89
2018-11-27T03:18:20.262Z,-0.98
2018-11-27T03:19:20.252Z,-0.94
2018-11-27T03:20:20.257Z,-0.99
2018-11-27T03:21:20.227Z,-1.09
2018-11-27T03:22:20.218Z,-0.97
2018-11-27T03:23:20.206Z,-0.97
2018-11-27T03:24:20.197Z,-1.04
2018-11-27T03:25:20.209Z,-0.92
2018-11-27T03:26:20.176Z,-1.07
2018-11-27T03:27:20.161Z,-1.01
2018-11-27T03:28:20.149Z,-1.09
2018-11-27T03:29:20.142Z,-1.04
2018-11-27T03:30:20.177Z,-0.97
2018-11-27T03:31:20.136Z,-1.07
2018-11-27T03:32:20.106Z,-1.04
2018-11-27T03:33:20.098Z,-1.02
2018-11-27T03:34:20.092Z,-1.07
2018-11-27T03:35:20.091Z,-1.09
2018-11-27T03:36:20.061Z,-0.91
2018-11-27T03:37:20.052Z,-1.09
2018-11-27T03:38:20.043Z,-1.01
2018-11-27T03:39:20.033Z,-1.09
2018-11-27T03:40:20.043Z,-1.04
2018-11-27T03:41:20.009Z,-1.04
2018-11-27T03:42:20.001Z,-1.12
2018-11-27T03:43:19.983Z,-1.09
2018-11-27T03:44:19.973Z,-1.12
2018-11-27T03:45:19.998Z,-1.02
2018-11-27T03:46:19.963Z,-1.01
2018-11-27T03:47:19.941Z,-0.99
2018-11-27T03:48:19.937Z,-1.02
2018-11-27T03:49:19.942Z,-1.02
2018-11-27T03:50:19.915Z,-0.97
2018-11-27T03:51:19.920Z,-0.99
2018-11-27T03:52:19.889Z,-1.05
2018-11-27T03:53:19.887Z,-1.01
2018-11-27T03:54:19.863Z,-1.13
2018-11-27T03:55:19.849Z,-1.01
2018-11-27T03:56:19.869Z,-1.05
2018-11-27T03:57:19.829Z,-1.10
2018-11-27T03:58:19.817Z,-1.05
2018-11-27T03:59:19.815Z,-1.02
2018-11-27T04:00:19.795Z,-1.01
2018-11-27T04:01:19.825Z,-1.01
2018-11-27T04:02:19.777Z,-1.15
2018-11-27T04:03:19.769Z,-0.97
2018-11-27T04:04:19.754Z,-1.04
2018-11-27T04:05:19.753Z,-1.15
2018-11-27T04:06:19.761Z,-0.99
2018-11-27T04:07:19.721Z,-0.99
2018-11-27T04:08:19.712Z,-1.04
2018-11-27T04:09:19.699Z,-1.01
2018-11-27T04:10:19.696Z,-1.16
2018-11-27T04:11:19.700Z,-1.12
2018-11-27T04:12:19.682Z,-1.10
2018-11-27T04:13:19.657Z,-1.16
2018-11-27T04:14:19.642Z,-1.10
2018-11-27T04:15:19.629Z,-1.17
2018-11-27T04:16:19.627Z,-1.09
2018-11-27T04:17:19.643Z,-1.15
2018-11-27T04:18:19.600Z,-1.04
2018-11-27T04:19:19.589Z,-1.05
2018-11-27T04:20:19.583Z,-1.10
2018-11-27T04:21:19.560Z,-1.17
2018-11-27T04:22:19.579Z,-1.19
2018-11-27T04:23:19.540Z,-1.19
2018-11-27T04:24:19.544Z,-1.23
2018-11-27T04:25:19.516Z,-1.17
2018-11-27T04:26:19.508Z,-1.15
2018-11-27T04:27:19.521Z,-1.20
2018-11-27T04:28:19.484Z,-1.28
2018-11-27T04:29:19.476Z,-1.31
2018-11-27T04:30:19.466Z,-1.27
2018-11-27T04:31:19.457Z,-1.31
2018-11-27T04:32:19.463Z,-1.23
2018-11-27T04:33:19.433Z,-1.30
2018-11-27T04:34:19.423Z,-1.31
2018-11-27T04:35:19.413Z,-1.28
2018-11-27T04:36:19.394Z,-1.25
2018-11-27T04:37:19.402Z,-1.33
2018-11-27T04:38:19.375Z,-1.28
2018-11-27T04:39:19.368Z,-1.31
2018-11-27T04:40:19.354Z,-1.30
2018-11-27T04:41:19.341Z,-1.33
2018-11-27T04:42:19.361Z,-1.27
2018-11-27T04:43:19.323Z,-1.22
2018-11-27T04:44:19.326Z,-1.25
2018-11-27T04:45:19.311Z,-1.30
2018-11-27T04:46:19.290Z,-1.27
2018-11-27T04:47:19.298Z,-1.27
2018-11-27T04:48:19.271Z,-1.27
2018-11-27T04:49:19.260Z,-1.28
2018-11-27T04:50:19.257Z,-1.31
2018-11-27T04:51:19.254Z,-1.27
2018-11-27T04:52:19.246Z,-1.31
2018-11-27T04:53:19.221Z,-1.23
2018-11-27T04:54:19.200Z,-1.34
2018-11-27T04:55:19.953Z,-1.31
2018-11-27T04:56:19.182Z,-1.30
2018-11-27T04:57:19.191Z,-1.30
2018-11-27T04:58:19.165Z,-1.31
2018-11-27T04:59:19.144Z,-1.33
2018-11-27T05:00:19.137Z,-1.34
2018-11-27T05:01:19.119Z,-1.28
2018-11-27T05:02:19.125Z,-1.30
2018-11-27T05:03:19.120Z,-1.30
2018-11-27T05:04:19.096Z,-1.27
2018-11-27T05:05:19.074Z,-1.30
2018-11-27T05:06:19.075Z,-1.30
2018-11-27T05:07:19.056Z,-1.33
2018-11-27T05:08:19.064Z,-1.33
2018-11-27T05:09:19.054Z,-1.27
2018-11-27T05:10:19.028Z,-1.30
2018-11-27T05:11:19.010Z,-1.34
2018-11-27T05:12:19.016Z,-1.37
2018-11-27T05:13:19.004Z,-1.27
2018-11-27T05:14:18.990Z,-1.30
2018-11-27T05:15:18.963Z,-1.41
2018-11-27T05:16:18.951Z,-1.41
2018-11-27T05:17:18.943Z,-1.41
2018-11-27T05:18:18.954Z,-1.37
2018-11-27T05:19:18.930Z,-1.40
2018-11-27T05:20:18.912Z,-1.41
2018-11-27T05:21:18.900Z,-1.41
2018-11-27T05:22:18.890Z,-1.54
2018-11-27T05:23:18.900Z,-1.35
2018-11-27T05:24:18.866Z,-1.35
2018-11-27T05:25:18.865Z,-1.37
2018-11-27T05:26:18.848Z,-1.38
2018-11-27T05:27:18.838Z,-1.40
2018-11-27T05:28:18.838Z,-1.41
2018-11-27T05:29:18.820Z,-1.35
2018-11-27T05:30:18.798Z,-1.45
2018-11-27T05:31:18.794Z,-1.46
2018-11-27T05:32:18.780Z,-1.56
2018-11-27T05:33:18.786Z,-1.43
2018-11-27T05:34:18.753Z,-1.38
2018-11-27T05:35:18.744Z,-1.54
2018-11-27T05:36:18.740Z,-1.54
2018-11-27T05:37:18.733Z,-1.45
2018-11-27T05:38:18.734Z,-1.54
2018-11-27T05:39:18.699Z,-1.56
2018-11-27T05:40:18.694Z,-1.46
2018-11-27T05:41:18.690Z,-1.54
2018-11-27T05:42:18.675Z,-1.51
2018-11-27T05:43:18.679Z,-1.52
2018-11-27T05:44:18.645Z,-1.56
2018-11-27T05:45:18.635Z,-1.52
2018-11-27T05:46:18.628Z,-1.54
2018-11-27T05:47:18.625Z,-1.48
2018-11-27T05:48:18.616Z,-1.52
2018-11-27T05:49:18.594Z,-1.62
2018-11-27T05:50:18.577Z,-1.62
2018-11-27T05:51:18.569Z,-1.54
2018-11-27T05:52:18.559Z,-1.48
2018-11-27T05:53:18.581Z,-1.46
2018-11-27T05:54:18.544Z,-1.54
2018-11-27T05:55:18.524Z,-1.52
2018-11-27T05:56:18.520Z,-1.54
2018-11-27T05:57:18.501Z,-1.59
2018-11-27T05:58:18.498Z,-1.58
2018-11-27T05:59:18.495Z,-1.54
2018-11-27T06:00:18.470Z,-1.58
2018-11-27T06:01:18.458Z,-1.55
2018-11-27T06:02:18.456Z,-1.45
2018-11-27T06:03:18.435Z,-1.43
2018-11-27T06:04:18.446Z,-1.55
2018-11-27T06:05:18.418Z,-1.52
2018-11-27T06:06:18.403Z,-1.40
2018-11-27T06:07:18.391Z,-1.48
2018-11-27T06:08:18.377Z,-1.54
2018-11-27T06:09:18.383Z,-1.49
2018-11-27T06:10:18.369Z,-1.51
2018-11-27T06:11:18.347Z,-1.48
2018-11-27T06:12:18.338Z,-1.52
2018-11-27T06:13:18.321Z,-1.51
2018-11-27T06:14:18.333Z,-1.56
2018-11-27T06:15:18.300Z,-1.54
2018-11-27T06:16:18.293Z,-1.51
2018-11-27T06:17:18.287Z,-1.51
2018-11-27T06:18:18.271Z,-1.40
2018-11-27T06:19:18.271Z,-1.43
2018-11-27T06:20:18.250Z,-1.35
2018-11-27T06:21:18.237Z,-1.48
2018-11-27T06:22:18.221Z,-1.46
2018-11-27T06:23:18.233Z,-1.43
2018-11-27T06:24:18.232Z,-1.41
2018-11-27T06:25:18.190Z,-1.45
2018-11-27T06:26:18.180Z,-1.45
2018-11-27T06:27:18.181Z,-1.41
2018-11-27T06:28:18.165Z,-1.35
2018-11-27T06:29:18.710Z,-1.43
2018-11-27T06:30:18.136Z,-1.31
2018-11-27T06:31:18.124Z,-1.33
2018-11-27T06:32:21.421Z,-1.28
2018-11-27T06:33:18.104Z,-1.30
2018-11-27T06:34:18.107Z,-1.22
2018-11-27T06:35:18.099Z,-1.16
2018-11-27T06:36:18.067Z,-1.33
2018-11-27T06:37:18.056Z,-1.20
2018-11-27T06:38:18.049Z,-1.19
2018-11-27T06:39:18.038Z,-1.15
2018-11-27T06:40:18.043Z,-1.16
2018-11-27T06:41:18.015Z,-1.09
2018-11-27T06:42:18.003Z,-1.12
2018-11-27T06:43:17.994Z,-1.04
2018-11-27T06:44:17.983Z,-0.94
2018-11-27T06:45:17.983Z,-0.97
2018-11-27T06:46:17.957Z,-0.99
2018-11-27T06:47:17.943Z,-1.09
2018-11-27T06:48:17.935Z,-1.05
2018-11-27T06:49:17.925Z,-1.09
2018-11-27T06:50:17.945Z,-0.94
2018-11-27T06:51:17.911Z,-1.10
2018-11-27T06:52:17.889Z,-0.92
2018-11-27T06:53:17.885Z,-1.04
2018-11-27T06:54:17.869Z,-0.94
2018-11-27T06:55:17.893Z,-0.86
2018-11-27T06:56:17.849Z,-0.97
2018-11-27T06:57:17.842Z,-0.85
2018-11-27T06:58:17.824Z,-0.82
2018-11-27T06:59:17.817Z,-0.79
2018-11-27T07:00:17.821Z,-0.83
2018-11-27T07:01:17.793Z,-0.78
2018-11-27T07:02:17.785Z,-0.79
2018-11-27T07:03:17.791Z,-0.72
2018-11-27T07:04:17.758Z,-0.72
2018-11-27T07:05:17.767Z,-0.76
2018-11-27T07:06:17.738Z,-0.62
2018-11-27T07:07:17.726Z,-0.72
2018-11-27T07:08:17.717Z,-0.58
2018-11-27T07:09:17.705Z,-0.70
2018-11-27T07:10:17.718Z,-0.67
2018-11-27T07:11:17.683Z,-0.58
2018-11-27T07:12:17.673Z,-0.61
2018-11-27T07:13:17.660Z,-0.65
2018-11-27T07:14:17.651Z,-0.69
2018-11-27T07:15:17.653Z,-0.58
2018-11-27T07:16:17.625Z,-0.61
2018-11-27T07:17:17.619Z,-0.62
2018-11-27T07:18:17.601Z,-0.64
2018-11-27T07:19:17.595Z,-0.55
2018-11-27T07:20:17.607Z,-0.61
2018-11-27T07:21:17.574Z,-0.49
2018-11-27T07:22:17.559Z,-0.49
2018-11-27T07:23:17.563Z,-0.47
2018-11-27T07:24:17.543Z,-0.49
2018-11-27T07:25:17.555Z,-0.46
2018-11-27T07:26:17.519Z,-0.46
2018-11-27T07:27:17.503Z,-0.47
2018-11-27T07:28:17.499Z,-0.51
2018-11-27T07:29:17.488Z,-0.47
2018-11-27T07:30:17.501Z,-0.42
2018-11-27T07:31:17.464Z,-0.33
2018-11-27T07:32:17.449Z,-0.33
2018-11-27T07:33:17.442Z,-0.42
2018-11-27T07:34:17.431Z,-0.31
2018-11-27T07:35:17.445Z,-0.36
2018-11-27T07:36:17.406Z,-0.22
2018-11-27T07:37:17.400Z,-0.23
2018-11-27T07:38:17.381Z,-0.28
2018-11-27T07:39:17.379Z,-0.23
2018-11-27T07:40:17.403Z,-0.25
2018-11-27T07:41:17.350Z,-0.26
2018-11-27T07:42:17.339Z,-0.26
2018-11-27T07:43:17.373Z,-0.22
2018-11-27T07:44:17.318Z,-0.14
2018-11-27T07:45:17.324Z,-0.10
2018-11-27T07:46:17.357Z,-0.10
2018-11-27T07:47:17.287Z,-0.08
2018-11-27T07:48:17.271Z,-0.01
2018-11-27T07:49:17.279Z,-0.03
2018-11-27T07:50:17.280Z,-0.05
2018-11-27T07:51:17.243Z,-0.04
2018-11-27T07:52:17.227Z,0.04
2018-11-27T07:53:17.225Z,-0.05
2018-11-27T07:54:17.209Z,-0.03
2018-11-27T07:55:17.203Z,-0.03
2018-11-27T07:56:17.337Z,0.10
2018-11-27T07:57:17.169Z,0.10
2018-11-27T07:58:17.165Z,0.03
2018-11-27T07:59:06.923Z,0.04
2018-11-27T08:00:06.907Z,-0.03
2018-11-27T08:01:06.913Z,-0.03
2018-11-27T08:02:06.889Z,0.03
2018-11-27T08:03:06.869Z,0.02
2018-11-27T08:04:06.896Z,0.03
2018-11-27T08:05:06.851Z,0.20
2018-11-27T08:06:06.871Z,0.14
2018-11-27T08:07:06.822Z,0.08
2018-11-27T08:08:06.825Z,0.15
2018-11-27T08:09:06.809Z,0.28
2018-11-27T08:10:06.793Z,0.29
2018-11-27T08:11:06.804Z,0.26
2018-11-27T08:12:06.791Z,0.21
2018-11-27T08:13:06.763Z,0.24
2018-11-27T08:14:06.749Z,0.29
2018-11-27T08:15:06.737Z,0.28
2018-11-27T08:16:06.757Z,0.32
2018-11-27T08:17:06.725Z,0.29
2018-11-27T08:18:06.722Z,0.32
2018-11-27T08:19:06.699Z,0.33
2018-11-27T08:20:06.683Z,0.39
2018-11-27T08:21:06.693Z,0.47
2018-11-27T08:22:06.666Z,0.47
2018-11-27T08:23:06.659Z,0.47
2018-11-27T08:24:06.642Z,0.51
2018-11-27T08:25:06.625Z,0.50
2018-11-27T08:26:06.632Z,0.51
2018-11-27T08:27:06.620Z,0.53
2018-11-27T08:28:06.604Z,0.55
2018-11-27T08:29:06.603Z,0.50
2018-11-27T08:30:06.576Z,0.50
2018-11-27T08:31:06.595Z,0.57
2018-11-27T08:32:06.553Z,0.58
2018-11-27T08:33:06.542Z,0.46
2018-11-27T08:34:06.550Z,0.60
2018-11-27T08:35:06.535Z,0.57
2018-11-27T08:36:06.541Z,0.58
2018-11-27T08:37:06.497Z,0.53
2018-11-27T08:38:06.490Z,0.62
2018-11-27T08:39:06.473Z,0.68
2018-11-27T08:40:06.476Z,0.65
2018-11-27T08:41:06.479Z,0.72
2018-11-27T08:42:06.445Z,0.78
2018-11-27T08:43:06.494Z,0.78
2018-11-27T08:44:06.421Z,0.84
2018-11-27T08:45:06.411Z,0.70
2018-11-27T08:46:06.406Z,0.86
2018-11-27T08:47:06.421Z,0.70
2018-11-27T08:48:06.390Z,0.88
2018-11-27T08:49:06.372Z,0.83
2018-11-27T08:50:06.375Z,0.76
2018-11-27T08:51:06.371Z,0.76
2018-11-27T08:52:06.355Z,0.84
2018-11-27T08:53:06.324Z,0.79
2018-11-27T08:54:06.314Z,0.93
2018-11-27T08:55:06.302Z,0.90
2018-11-27T08:56:06.287Z,0.88
2018-11-27T08:57:06.299Z,0.93
2018-11-27T08:58:06.288Z,1.00
2018-11-27T08:59:06.255Z,0.98
2018-11-27T09:00:06.261Z,1.08
2018-11-27T09:01:06.231Z,1.12
2018-11-27T09:02:06.245Z,1.12
2018-11-27T09:03:06.223Z,1.09
2018-11-27T09:04:06.223Z,1.06
2018-11-27T09:05:06.193Z,1.14
2018-11-27T09:06:06.183Z,1.16
2018-11-27T09:07:06.184Z,1.15
2018-11-27T09:08:06.157Z,1.16
2018-11-27T09:09:06.152Z,1.23
2018-11-27T09:10:06.143Z,1.34
2018-11-27T09:11:06.125Z,1.30
2018-11-27T09:12:06.154Z,1.26
2018-11-27T09:13:06.104Z,1.30
2018-11-27T09:14:06.093Z,1.30
2018-11-27T09:15:06.093Z,1.30
2018-11-27T09:16:06.069Z,1.34
2018-11-27T09:17:06.056Z,1.22
2018-11-27T09:18:06.067Z,1.33
2018-11-27T09:19:06.050Z,1.34
2018-11-27T09:20:06.079Z,1.30
2018-11-27T09:21:06.037Z,1.29
2018-11-27T09:22:06.039Z,1.34
2018-11-27T09:23:05.995Z,1.32
2018-11-27T09:24:05.983Z,1.32
2018-11-27T09:25:05.972Z,1.40
2018-11-27T09:26:05.981Z,1.37
2018-11-27T09:27:05.977Z,1.45
2018-11-27T09:28:05.952Z,1.40
2018-11-27T09:29:05.931Z,1.45
2018-11-27T09:30:05.924Z,1.51
2018-11-27T09:31:05.909Z,1.52
2018-11-27T09:32:05.912Z,1.55
2018-11-27T09:33:06.110Z,1.51
2018-11-27T09:34:05.873Z,1.54
2018-11-27T09:35:05.860Z,1.52
2018-11-27T09:36:05.996Z,1.48
2018-11-27T09:37:05.888Z,1.51
2018-11-27T09:38:05.855Z,1.54
2018-11-27T09:39:05.815Z,1.51
2018-11-27T09:40:05.808Z,1.52
2018-11-27T09:41:05.799Z,1.52
2018-11-27T09:42:05.808Z,1.48
2018-11-27T09:43:05.999Z,1.55
2018-11-27T09:44:05.918Z,1.54
2018-11-27T09:45:05.747Z,1.51
2018-11-27T09:46:05.803Z,1.52
2018-11-27T09:47:05.730Z,1.48
2018-11-27T09:48:05.720Z,1.51
2018-11-27T09:49:05.739Z,1.52
2018-11-27T09:50:05.716Z,1.47
2018-11-27T09:51:05.684Z,1.51
2018-11-27T09:52:05.701Z,1.50
2018-11-27T09:53:05.670Z,1.54
2018-11-27T09:54:05.655Z,1.48
2018-11-27T09:55:05.666Z,1.55
2018-11-27T09:56:05.628Z,1.52
2018-11-27T09:57:05.620Z,1.58
2018-11-27T09:58:05.612Z,1.58
2018-11-27T09:59:05.596Z,1.66
2018-11-27T10:00:05.614Z,1.60
2018-11-27T10:01:05.587Z,1.58
2018-11-27T10:02:05.566Z,1.69
2018-11-27T10:03:05.553Z,1.59
2018-11-27T10:04:05.541Z,1.54
2018-11-27T10:05:05.556Z,1.63
2018-11-27T10:06:05.521Z,1.65
2018-11-27T10:07:05.522Z,1.65
2018-11-27T10:08:05.509Z,1.62
2018-11-27T10:09:05.483Z,1.63
2018-11-27T10:10:05.499Z,1.66
2018-11-27T10:11:05.519Z,1.63
2018-11-27T10:12:05.459Z,1.65
2018-11-27T10:13:05.442Z,1.52
2018-11-27T10:14:05.431Z,1.50
2018-11-27T10:15:05.438Z,1.59
2018-11-27T10:16:05.406Z,1.52
2018-11-27T10:17:05.401Z,1.65
2018-11-27T10:18:05.408Z,1.58
2018-11-27T10:19:05.382Z,1.62
2018-11-27T10:20:05.414Z,1.66
2018-11-27T10:21:05.356Z,1.59
2018-11-27T10:22:05.350Z,1.59
2018-11-27T10:23:05.338Z,1.60
2018-11-27T10:24:05.334Z,1.59
2018-11-27T10:25:05.332Z,1.52
2018-11-27T10:26:05.301Z,1.51
2018-11-27T10:27:05.286Z,1.63
2018-11-27T10:28:05.279Z,1.65
2018-11-27T10:29:05.269Z,1.66
2018-11-27T10:30:05.280Z,1.52
2018-11-27T10:31:05.248Z,1.63
2018-11-27T10:32:05.232Z,1.68
2018-11-27T10:33:05.244Z,1.65
2018-11-27T10:34:05.219Z,1.58
2018-11-27T10:35:05.215Z,1.62
2018-11-27T10:36:05.196Z,1.66
2018-11-27T10:37:05.177Z,1.73
2018-11-27T10:38:05.182Z,1.73
2018-11-27T10:39:05.154Z,1.77
2018-11-27T10:40:05.184Z,1.73
2018-11-27T10:41:05.136Z,1.77
2018-11-27T10:42:05.124Z,1.73
2018-11-27T10:43:05.132Z,1.79
2018-11-27T10:44:05.108Z,1.77
2018-11-27T10:45:05.097Z,1.86
2018-11-27T10:46:05.113Z,1.98
2018-11-27T10:47:05.084Z,1.91
2018-11-27T10:48:05.060Z,1.98
2018-11-27T10:49:05.050Z,1.98
2018-11-27T10:50:05.048Z,1.99
2018-11-27T10:51:05.047Z,1.99
2018-11-27T10:52:05.028Z,1.98
2018-11-27T10:53:05.002Z,2.05
2018-11-27T10:54:04.998Z,1.98
2018-11-27T10:55:04.986Z,2.02
2018-11-27T10:56:04.998Z,1.95
2018-11-27T10:57:04.960Z,1.99
2018-11-27T10:58:04.957Z,2.07
2018-11-27T10:59:04.937Z,2.10
2018-11-27T11:00:04.984Z,2.16
2018-11-27T11:01:04.939Z,2.07
2018-11-27T11:02:04.921Z,2.09
2018-11-27T11:03:04.900Z,2.05
2018-11-27T11:04:04.888Z,2.10
2018-11-27T11:05:04.895Z,2.14
2018-11-27T11:06:04.895Z,2.06
2018-11-27T11:07:04.854Z,2.07
2018-11-27T11:08:04.847Z,2.09
2018-11-27T11:09:04.840Z,2.10
2018-11-27T11:10:04.819Z,2.17
2018-11-27T11:11:04.831Z,2.17
2018-11-27T11:12:04.798Z,2.12
2018-11-27T11:13:04.860Z,2.18
2018-11-27T11:14:04.776Z,2.18
2018-11-27T11:15:04.772Z,2.16
2018-11-27T11:16:04.804Z,2.14
2018-11-27T11:17:04.736Z,2.12
2018-11-27T11:18:04.733Z,2.14
2018-11-27T11:19:04.752Z,2.07
2018-11-27T11:20:04.706Z,2.06
2018-11-27T11:21:04.702Z,2.09
2018-11-27T11:22:04.740Z,2.14
2018-11-27T11:23:04.674Z,2.07
2018-11-27T11:24:04.663Z,2.07
2018-11-27T11:25:04.652Z,2.24
2018-11-27T11:26:04.638Z,2.21
2018-11-27T11:27:04.655Z,2.18
2018-11-27T11:28:04.616Z,2.24
2018-11-27T11:29:04.610Z,2.28
2018-11-27T11:30:04.591Z,2.20
2018-11-27T11:31:04.595Z,2.24
2018-11-27T11:32:04.596Z,2.18
2018-11-27T11:33:04.568Z,2.25
2018-11-27T11:34:04.547Z,2.21
2018-11-27T11:35:04.553Z,2.23
2018-11-27T11:36:04.532Z,2.30
2018-11-27T11:37:04.540Z,2.20
2018-11-27T11:38:04.520Z,2.30
2018-11-27T11:39:04.496Z,2.23
2018-11-27T11:40:04.496Z,2.18
2018-11-27T11:41:04.481Z,2.24
2018-11-27T11:42:04.462Z,2.25
2018-11-27T11:43:04.470Z,2.35
2018-11-27T11:44:04.449Z,2.31
2018-11-27T11:45:04.455Z,2.35
2018-11-27T11:46:04.433Z,2.28
2018-11-27T11:47:04.431Z,2.42
2018-11-27T11:48:04.419Z,2.30
2018-11-27T11:49:04.395Z,2.38
2018-11-27T11:50:04.402Z,2.36
2018-11-27T11:51:04.360Z,2.30
2018-11-27T11:52:04.347Z,2.42
2018-11-27T11:53:04.362Z,2.42
2018-11-27T11:54:04.327Z,2.38
2018-11-27T11:55:04.321Z,2.46
2018-11-27T11:56:04.313Z,2.52
2018-11-27T11:57:04.302Z,2.36
2018-11-27T11:58:04.312Z,2.42
2018-11-27T11:59:04.286Z,2.41
2018-11-27T12:00:04.271Z,2.41
2018-11-27T12:01:04.255Z,2.42
2018-11-27T12:02:04.276Z,2.49
2018-11-27T12:03:04.324Z,2.49
2018-11-27T12:04:04.217Z,2.42
2018-11-27T12:05:04.214Z,2.42
2018-11-27T12:06:04.200Z,2.43
2018-11-27T12:07:04.186Z,2.36
2018-11-27T12:08:04.251Z,2.34
2018-11-27T12:09:04.160Z,2.28
2018-11-27T12:10:04.150Z,2.43
2018-11-27T12:11:04.147Z,2.25
2018-11-27T12:12:04.130Z,2.23
2018-11-27T12:13:04.148Z,2.20
2018-11-27T12:14:04.103Z,2.27
2018-11-27T12:15:04.101Z,2.18
2018-11-27T12:16:04.121Z,2.23
2018-11-27T12:17:04.076Z,2.17
2018-11-27T12:18:04.064Z,2.27
2018-11-27T12:19:04.046Z,2.24
2018-11-27T12:20:04.038Z,2.24
2018-11-27T12:21:04.040Z,2.23
2018-11-27T12:22:04.015Z,2.21
2018-11-27T12:23:04.028Z,2.31
2018-11-27T12:24:04.008Z,2.34
2018-11-27T12:25:03.980Z,2.30
2018-11-27T12:26:03.972Z,2.27
2018-11-27T12:27:03.964Z,2.35
2018-11-27T12:28:03.973Z,2.28
2018-11-27T12:29:03.948Z,2.45
2018-11-27T12:30:03.932Z,2.41
2018-11-27T12:31:03.919Z,2.45
2018-11-27T12:32:03.916Z,2.42
2018-11-27T12:33:03.934Z,2.42
2018-11-27T12:34:03.885Z,2.41
2018-11-27T12:35:03.885Z,2.46
2018-11-27T12:36:03.860Z,2.49
2018-11-27T12:37:03.862Z,2.43
2018-11-27T12:38:03.856Z,2.41
2018-11-27T12:39:03.840Z,2.46
2018-11-27T12:40:03.828Z,2.46
2018-11-27T12:41:03.812Z,2.46
2018-11-27T12:42:03.815Z,2.45
2018-11-27T12:43:03.818Z,2.45
2018-11-27T12:44:03.780Z,2.42
2018-11-27T12:45:03.772Z,2.52
2018-11-27T12:46:03.752Z,2.54
2018-11-27T12:47:03.746Z,2.52
2018-11-27T12:48:03.748Z,2.57
2018-11-27T12:49:03.722Z,2.45
2018-11-27T12:50:03.705Z,2.45
2018-11-27T12:51:03.732Z,2.56
2018-11-27T12:52:03.690Z,2.52
2018-11-27T12:53:03.686Z,2.56
2018-11-27T12:54:03.661Z,2.54
2018-11-27T12:55:03.650Z,2.61
2018-11-27T12:56:03.638Z,2.52
2018-11-27T12:57:03.650Z,2.52
2018-11-27T12:58:03.622Z,2.56
2018-11-27T12:59:03.644Z,2.53
2018-11-27T13:00:03.596Z,2.52
2018-11-27T13:01:03.584Z,2.59
2018-11-27T13:02:03.581Z,2.56
2018-11-27T13:03:03.566Z,2.52
2018-11-27T13:04:03.573Z,2.49